Time;durP1;ratioP1;P1;durP2;ratioP2;P2;SDS_P1;SDS_P2;PMS_P1;PMS_P2;Temp;Humidity;BMP_temperature;BMP_pressure;BME280_temperature;BME280_humidity;BME280_pressure;Samples;Min_cycle;Max_cycle;Signal;HPM_P1;HPM_P2
2021/08/27 00:01:18;;;;;;;;;0.25;0.25;;;;;27.00;38.21;101867.53;5017545;28;45416;-69
2021/08/27 00:03:44;;;;;;;;;1.50;1.00;;;;;27.00;38.16;101864.88;5017485;28;45470;-68
2021/08/27 00:06:09;;;;;;;;;1.50;1.00;;;;;27.01;38.31;101860.34;5016981;28;45454;-69
2021/08/27 00:08:35;;;;;;;;;1.00;1.00;;;;;26.98;38.46;101856.22;5017933;28;45481;-68
2021/08/27 00:11:00;;;;;;;;;1.00;1.00;;;;;26.99;38.19;101857.84;5017284;28;45425;-69
2021/08/27 00:13:26;;;;;;;;;0.00;0.00;;;;;26.98;38.33;101852.72;5017403;28;45569;-69
2021/08/27 00:15:51;;;;;;;;;0.75;0.75;;;;;27.00;38.20;101851.50;5017069;28;45931;-69
2021/08/27 00:18:16;;;;;;;;;1.00;1.00;;;;;26.90;38.16;101829.63;5017455;28;45363;-69
2021/08/27 00:20:42;;;;;;;;;1.00;1.00;;;;;26.94;38.20;101836.22;5013263;28;45867;-69
2021/08/27 00:23:07;;;;;;;;;1.00;1.00;;;;;27.01;37.96;101849.66;5017306;28;45539;-69
2021/08/27 00:25:33;;;;;;;;;1.50;1.50;;;;;27.02;37.94;101853.97;5016901;28;46208;-69
2021/08/27 00:27:58;;;;;;;;;1.00;1.00;;;;;27.02;38.00;101849.47;5017350;28;45248;-69
2021/08/27 00:30:24;;;;;;;;;1.00;1.00;;;;;26.90;38.05;101840.31;5017196;28;45253;-69
2021/08/27 00:32:50;;;;;;;;;1.50;1.50;;;;;27.02;37.98;101846.81;5017336;28;45423;-69
2021/08/27 00:35:15;;;;;;;;;0.00;0.00;;;;;27.02;38.18;101852.13;5016975;28;45335;-69
2021/08/27 00:37:41;;;;;;;;;0.50;0.50;;;;;27.02;38.43;101846.81;5003458;28;45697;-69
2021/08/27 00:40:08;;;;;;;;;1.00;1.00;;;;;27.03;37.95;101842.28;5016853;28;45406;-69
2021/08/27 00:42:33;;;;;;;;;2.50;1.75;;;;;27.02;38.40;101841.47;5017020;28;45505;-68
2021/08/27 00:44:59;;;;;;;;;0.00;0.00;;;;;27.03;38.21;101836.94;5016691;28;46037;-68
2021/08/27 00:47:24;;;;;;;;;1.00;1.00;;;;;26.97;37.97;101825.19;5017119;28;45415;-69
2021/08/27 00:49:50;;;;;;;;;0.00;0.00;;;;;27.02;38.10;101833.44;5016348;28;45303;-69
2021/08/27 00:52:15;;;;;;;;;1.25;1.25;;;;;27.00;37.88;101830.16;5016816;28;45397;-69
2021/08/27 00:54:47;;;;;;;;;1.00;1.00;;;;;27.01;37.87;101829.09;5016666;28;45387;-69
2021/08/27 00:57:13;;;;;;;;;1.00;1.00;;;;;27.00;38.14;101824.81;5016693;28;45371;-69
2021/08/27 00:59:38;;;;;;;;;1.00;1.00;;;;;26.98;38.28;101821.50;5016033;28;45326;-68
2021/08/27 01:02:04;;;;;;;;;1.50;1.50;;;;;27.00;37.99;101826.66;5003146;28;45524;-69
2021/08/27 01:04:30;;;;;;;;;1.00;0.67;;;;;26.99;38.04;101825.81;5002645;28;46636;-69
2021/08/27 01:07:00;;;;;;;;;1.50;1.50;;;;;26.98;38.12;101834.84;5016359;28;45490;-69
2021/08/27 01:09:50;;;;;;;;;1.50;1.00;;;;;26.97;38.26;101833.19;5016463;28;45514;-69
2021/08/27 01:12:37;;;;;;;;;0.25;0.25;;;;;26.98;38.17;101837.53;5000031;28;45346;-68
2021/08/27 01:15:14;;;;;;;;;3.00;1.00;;;;;26.99;38.05;101838.31;5014460;28;46130;-69
2021/08/27 01:18:03;;;;;;;;;1.67;1.00;;;;;26.98;38.49;101826.84;5016520;28;45445;-69
2021/08/27 01:20:53;;;;;;;;;1.00;1.00;;;;;26.97;38.01;101822.50;5014949;28;45538;-69
2021/08/27 01:23:33;;;;;;;;;1.00;1.00;;;;;26.97;38.13;101817.16;5015927;28;45451;-69
2021/08/27 01:26:00;;;;;;;;;2.50;2.25;;;;;26.96;38.09;101819.00;5015888;28;47142;-68
2021/08/27 01:28:27;;;;;;;;;1.00;1.00;;;;;26.98;38.65;101815.34;5015963;28;45258;-69
2021/08/27 01:31:32;;;;;;;;;1.00;1.00;;;;;26.96;37.91;101808.31;5015896;28;45414;-69
2021/08/27 01:34:28;;;;;;;;;2.00;1.25;;;;;26.96;37.96;101811.00;5015585;28;45488;-69
2021/08/27 01:36:55;;;;;;;;;1.75;1.00;;;;;26.89;38.27;101793.25;5015798;28;47349;-68
2021/08/27 01:39:27;;;;;;;;;1.00;1.00;;;;;26.95;38.38;101806.69;5016173;28;45328;-69
2021/08/27 01:41:56;;;;;;;;;1.00;1.00;;;;;26.96;37.88;101812.84;5016312;28;45280;-69
2021/08/27 01:44:23;;;;;;;;;1.00;1.00;;;;;26.96;38.18;101810.16;5015842;28;45467;-69
2021/08/27 01:46:52;;;;;;;;;1.00;1.00;;;;;26.96;38.15;101804.81;5015132;28;46550;-69
2021/08/27 01:49:19;;;;;;;;;0.33;0.33;;;;;26.84;38.54;101785.81;5015718;28;45545;-69
2021/08/27 01:51:46;;;;;;;;;2.67;2.00;;;;;26.95;38.58;101804.03;5015879;28;45591;-69
2021/08/27 01:54:13;;;;;;;;;1.00;1.00;;;;;26.92;38.13;101793.72;5015722;28;45474;-69
2021/08/27 01:56:41;;;;;;;;;1.00;1.00;;;;;26.96;38.40;101807.50;5016080;28;46504;-69
2021/08/27 01:59:07;;;;;;;;;1.25;1.00;;;;;26.96;38.18;101796.81;5015329;28;45469;-69
2021/08/27 02:01:34;;;;;;;;;1.00;1.00;;;;;26.93;38.00;101791.88;5015305;28;45456;-69
2021/08/27 02:04:08;;;;;;;;;3.25;3.00;;;;;26.95;37.98;101796.00;5015718;28;45400;-69
2021/08/27 02:06:35;;;;;;;;;1.00;1.00;;;;;26.99;38.12;101806.28;5015552;28;46279;-69
2021/08/27 02:09:01;;;;;;;;;2.25;1.75;;;;;26.98;38.22;101808.16;5015606;28;45407;-69
2021/08/27 02:11:29;;;;;;;;;0.50;0.50;;;;;26.98;38.10;101808.16;5014057;28;45368;-69
2021/08/27 02:13:57;;;;;;;;;1.50;1.50;;;;;26.96;38.43;101802.97;5015351;28;45545;-69
2021/08/27 02:16:23;;;;;;;;;0.75;0.75;;;;;26.96;38.26;101811.00;5014683;28;46233;-69
2021/08/27 02:18:48;;;;;;;;;0.00;0.00;;;;;26.98;38.56;101818.00;5015316;28;45251;-69
2021/08/27 02:21:16;;;;;;;;;0.75;0.75;;;;;26.99;37.97;101824.97;5015560;28;45293;-69
2021/08/27 02:23:43;;;;;;;;;1.00;1.00;;;;;26.98;37.98;101818.00;5015892;28;45508;-69
2021/08/27 02:26:14;;;;;;;;;1.50;1.00;;;;;26.98;38.10;101834.03;5015156;28;46272;-69
2021/08/27 02:28:43;;;;;;;;;1.00;1.00;;;;;26.97;38.18;101822.50;5015175;28;45653;-69
2021/08/27 02:31:09;;;;;;;;;3.00;1.00;;;;;26.98;38.35;101821.50;5014803;28;45326;-69
2021/08/27 02:33:40;;;;;;;;;0.33;0.00;;;;;26.97;38.00;101819.84;5015185;28;45328;-70
2021/08/27 02:36:10;;;;;;;;;2.00;2.00;;;;;26.94;38.48;101815.72;5015049;28;47384;-69
2021/08/27 02:38:37;;;;;;;;;1.00;1.00;;;;;26.92;37.79;101806.22;5015808;28;45547;-69
2021/08/27 02:41:03;;;;;;;;;1.00;1.00;;;;;26.96;38.05;101816.34;5014924;28;45604;-69
2021/08/27 02:43:28;;;;;;;;;1.00;1.00;;;;;26.96;38.00;101808.31;5015083;28;45309;-69
2021/08/27 02:45:54;;;;;;;;;2.00;2.00;;;;;26.95;38.15;101819.22;5014478;28;45688;-69
2021/08/27 02:48:20;;;;;;;;;1.00;1.00;;;;;26.95;38.21;101811.19;5015002;28;45460;-69
2021/08/27 02:51:21;;;;;;;;;1.00;1.00;;;;;26.95;38.12;101812.03;5015607;28;45425;-69
2021/08/27 02:53:52;;;;;;;;;0.00;0.00;;;;;26.95;38.48;101808.53;4927846;28;45395;-69
2021/08/27 02:56:24;;;;;;;;;0.00;0.00;;;;;26.92;38.29;101807.06;4919422;28;46402;-69
2021/08/27 02:58:52;;;;;;;;;3.25;2.00;;;;;26.92;38.44;101809.72;4918813;28;45535;-69
2021/08/27 03:01:49;;;;;;;;;1.00;1.00;;;;;26.93;38.20;101807.91;4919482;28;45560;-69
2021/08/27 03:04:35;;;;;;;;;1.50;1.50;;;;;26.94;38.02;101806.84;4919360;28;45499;-69
2021/08/27 03:07:05;;;;;;;;;1.00;1.00;;;;;26.94;38.16;101804.19;4919075;28;46529;-69
2021/08/27 03:09:39;;;;;;;;;1.75;1.75;;;;;26.93;38.17;101792.69;4916779;28;45495;-69
2021/08/27 03:12:07;;;;;;;;;2.75;2.00;;;;;26.92;38.02;101791.03;4916442;28;46500;-69
2021/08/27 03:14:51;;;;;;;;;1.00;1.00;;;;;26.91;37.96;101789.38;4919621;28;45535;-69
2021/08/27 03:17:19;;;;;;;;;0.25;0.25;;;;;26.92;38.06;101800.88;4919541;28;46266;-69
2021/08/27 03:20:02;;;;;;;;;2.00;2.00;;;;;26.91;38.43;101800.06;4902707;28;45291;-69
2021/08/27 03:22:45;;;;;;;;;0.75;0.75;;;;;26.92;38.01;101800.88;4919170;28;45551;-69
2021/08/27 03:25:13;;;;;;;;;4.25;4.00;;;;;26.92;38.34;101798.22;4919147;28;45667;-69
2021/08/27 03:27:50;;;;;;;;;1.00;1.00;;;;;26.93;38.16;101798.03;4917229;28;47145;-72
2021/08/27 03:30:21;;;;;;;;;1.67;1.00;;;;;26.92;38.01;101799.06;4986504;28;45549;-69
2021/08/27 03:32:49;;;;;;;;;1.00;1.00;;;;;26.93;38.20;101797.22;5011251;28;45478;-69
2021/08/27 03:35:18;;;;;;;;;2.50;1.00;;;;;26.94;38.04;101802.34;5016898;28;45313;-69
2021/08/27 03:37:43;;;;;;;;;1.00;1.00;;;;;26.95;38.23;101805.84;5017673;28;45232;-69
2021/08/27 03:40:11;;;;;;;;;3.00;1.00;;;;;26.85;38.13;101793.63;5017683;28;45192;-69
2021/08/27 03:42:38;;;;;;;;;1.00;1.00;;;;;26.95;38.43;101796.00;5017946;28;45300;-69
2021/08/27 03:45:04;;;;;;;;;1.25;1.00;;;;;26.96;38.23;101802.97;5017868;28;45337;-69
2021/08/27 03:47:31;;;;;;;;;1.00;1.00;;;;;26.97;38.39;101798.47;5018068;28;46316;-69
2021/08/27 03:49:56;;;;;;;;;1.00;1.00;;;;;26.96;38.53;101800.31;5017083;28;49783;-69
2021/08/27 03:52:23;;;;;;;;;1.00;1.00;;;;;26.94;38.11;101794.34;5017612;28;45480;-69
2021/08/27 03:54:49;;;;;;;;;1.00;1.00;;;;;26.97;38.19;101798.47;5017615;28;45482;-69
2021/08/27 03:57:16;;;;;;;;;1.75;1.75;;;;;26.96;38.23;101797.66;5001270;28;47534;-69
2021/08/27 03:59:43;;;;;;;;;2.00;2.00;;;;;26.96;37.96;101791.47;5017962;28;45326;-69
2021/08/27 04:02:11;;;;;;;;;1.00;1.00;;;;;26.96;38.13;101791.47;5017424;28;45387;-69
2021/08/27 04:04:36;;;;;;;;;0.75;0.75;;;;;26.96;37.96;101791.47;5017387;28;45367;-69
2021/08/27 04:07:03;;;;;;;;;0.75;0.00;;;;;26.96;38.35;101789.63;5015863;28;47034;-69
2021/08/27 04:09:30;;;;;;;;;1.50;1.00;;;;;26.97;38.07;101793.13;5017326;28;45470;-69
2021/08/27 04:11:57;;;;;;;;;1.00;1.00;;;;;26.96;38.12;101786.97;5017175;28;45261;-69
2021/08/27 04:14:23;;;;;;;;;1.00;1.00;;;;;26.96;38.37;101789.63;5017636;28;45568;-68
2021/08/27 04:16:48;;;;;;;;;2.00;1.00;;;;;26.96;38.03;101789.63;5016941;28;45527;-69
2021/08/27 04:19:14;;;;;;;;;2.50;1.00;;;;;26.95;38.64;101789.84;5017125;28;45399;-69
2021/08/27 04:21:41;;;;;;;;;1.25;1.25;;;;;26.94;38.41;101783.66;5017776;28;45543;-69
2021/08/27 04:24:08;;;;;;;;;1.00;1.00;;;;;26.93;38.12;101787.34;5017128;28;45409;-69
2021/08/27 04:26:33;;;;;;;;;1.00;1.00;;;;;26.93;38.20;101790.00;5017085;28;46371;-69
2021/08/27 04:28:59;;;;;;;;;1.00;1.00;;;;;26.93;38.28;101786.53;5016822;28;45423;-69
2021/08/27 04:31:24;;;;;;;;;3.75;1.25;;;;;26.93;38.35;101786.53;5017102;28;47235;-69
2021/08/27 04:33:50;;;;;;;;;1.00;1.00;;;;;26.85;38.38;101777.63;5017084;28;45592;-69
2021/08/27 04:36:15;;;;;;;;;1.75;1.75;;;;;26.92;38.60;101790.22;5017054;28;45934;-69
2021/08/27 04:38:41;;;;;;;;;2.50;1.00;;;;;26.82;38.21;101774.50;5017456;28;45361;-69
2021/08/27 04:41:06;;;;;;;;;0.75;0.75;;;;;26.91;38.43;101785.88;5016661;28;45536;-69
2021/08/27 04:43:31;;;;;;;;;2.25;1.75;;;;;26.91;38.03;101793.88;5016809;28;45471;-69
2021/08/27 04:45:57;;;;;;;;;3.00;3.00;;;;;26.88;38.24;101787.09;5015311;28;47097;-69
2021/08/27 04:48:23;;;;;;;;;1.25;1.25;;;;;26.90;38.68;101797.59;5016783;28;45390;-69
2021/08/27 04:50:48;;;;;;;;;2.25;2.00;;;;;26.91;38.31;101794.72;5017115;28;45363;-69
2021/08/27 04:53:13;;;;;;;;;1.75;1.75;;;;;26.91;38.64;101796.56;5017029;28;45528;-69
2021/08/27 04:55:39;;;;;;;;;2.25;1.00;;;;;26.91;38.43;101801.91;5006049;28;47167;-69
2021/08/27 04:58:04;;;;;;;;;2.00;2.00;;;;;26.91;38.20;101801.91;5016587;28;45456;-69
2021/08/27 05:00:30;;;;;;;;;0.75;0.25;;;;;26.91;38.53;101799.22;5016799;28;45346;-69
2021/08/27 05:02:55;;;;;;;;;1.75;1.75;;;;;26.90;38.23;101805.59;5016758;28;45342;-69
2021/08/27 05:05:21;;;;;;;;;1.00;1.00;;;;;26.90;38.33;101808.28;5016868;28;46013;-69
2021/08/27 05:07:46;;;;;;;;;2.00;1.00;;;;;26.89;38.22;101809.28;5016406;28;45264;-69
2021/08/27 05:10:12;;;;;;;;;1.00;1.00;;;;;26.88;38.20;101805.78;5016122;28;45281;-69
2021/08/27 05:12:38;;;;;;;;;2.00;1.25;;;;;26.81;38.16;101803.06;5016636;28;45357;-69
2021/08/27 05:15:04;;;;;;;;;7.25;2.00;;;;;26.89;37.94;101810.09;5016112;28;46177;-68
2021/08/27 05:17:30;;;;;;;;;3.25;2.00;;;;;26.89;38.31;101815.44;5016984;28;45447;-69
2021/08/27 05:19:55;;;;;;;;;1.00;1.00;;;;;26.90;38.61;101817.13;5008591;28;45509;-69
2021/08/27 05:22:21;;;;;;;;;3.00;1.00;;;;;26.91;38.24;101812.56;5016557;28;45430;-69
2021/08/27 05:24:46;;;;;;;;;1.50;1.00;;;;;26.91;38.43;101826.75;5015742;28;46330;-70
2021/08/27 05:27:12;;;;;;;;;0.75;0.75;;;;;26.93;37.96;101819.38;5016419;28;45339;-69
2021/08/27 05:29:37;;;;;;;;;4.50;1.75;;;;;26.93;38.13;101830.06;5016860;28;45395;-69
2021/08/27 05:32:03;;;;;;;;;1.25;1.25;;;;;26.92;38.48;101833.75;5016387;28;45490;-69
2021/08/27 05:34:29;;;;;;;;;2.75;1.75;;;;;26.94;38.10;101838.91;5015921;28;46343;-69
2021/08/27 05:36:54;;;;;;;;;1.25;1.00;;;;;26.93;38.44;101839.94;5015815;28;45395;-69
2021/08/27 05:39:19;;;;;;;;;2.00;2.00;;;;;26.89;38.20;101835.97;5016002;28;45375;-69
2021/08/27 05:41:45;;;;;;;;;0.75;0.75;;;;;26.91;38.49;101833.94;5016830;28;45483;-68
2021/08/27 05:44:11;;;;;;;;;2.50;2.50;;;;;26.91;38.40;101833.94;5015836;28;46297;-69
2021/08/27 05:46:36;;;;;;;;;0.00;0.00;;;;;26.93;38.14;101850.63;5015771;28;45507;-69
2021/08/27 05:49:01;;;;;;;;;2.00;1.50;;;;;26.80;38.26;101836.13;5015805;28;45456;-69
2021/08/27 05:51:27;;;;;;;;;1.50;1.50;;;;;26.92;38.10;101852.47;5015962;28;45446;-69
2021/08/27 05:53:52;;;;;;;;;2.00;0.50;;;;;26.91;38.08;101857.97;5015771;28;47133;-69
2021/08/27 05:56:18;;;;;;;;;2.00;1.00;;;;;26.89;38.36;101857.34;5015641;28;45345;-69
2021/08/27 05:58:47;;;;;;;;;2.75;2.75;;;;;26.92;38.16;101860.47;5015469;28;45529;-69
2021/08/27 06:01:12;;;;;;;;;1.00;1.00;;;;;26.90;38.49;101867.84;5015616;28;45453;-69
2021/08/27 06:03:38;;;;;;;;;3.25;2.00;;;;;26.92;38.42;101870.31;5015447;28;46196;-69
2021/08/27 06:06:03;;;;;;;;;1.25;1.25;;;;;26.92;38.43;101872.97;5015562;28;45483;-69
2021/08/27 06:08:29;;;;;;;;;3.00;2.00;;;;;26.91;38.23;101869.47;5015838;28;45438;-69
2021/08/27 06:10:54;;;;;;;;;2.25;2.25;;;;;26.80;38.73;101852.13;5015496;28;45441;-69
2021/08/27 06:13:20;;;;;;;;;1.00;1.00;;;;;26.90;38.45;101864.34;5015344;28;45303;-69
2021/08/27 06:15:45;;;;;;;;;2.00;2.00;;;;;26.90;38.52;101864.34;5015296;28;45450;-69
2021/08/27 06:18:11;;;;;;;;;3.00;3.00;;;;;26.88;38.54;101867.19;5015820;28;45382;-69
2021/08/27 06:20:37;;;;;;;;;2.25;1.00;;;;;26.88;38.41;101863.72;5015982;28;45308;-69
2021/08/27 06:23:02;;;;;;;;;2.00;2.00;;;;;26.80;38.81;101853.97;5014924;28;45973;-69
2021/08/27 06:25:27;;;;;;;;;3.00;1.00;;;;;26.83;38.57;101866.91;5015154;28;45292;-69
2021/08/27 06:27:53;;;;;;;;;0.50;0.50;;;;;26.89;38.34;101862.69;5015438;28;45207;-69
2021/08/27 06:30:18;;;;;;;;;1.00;1.00;;;;;26.88;38.60;101869.84;5015396;28;45470;-69
2021/08/27 06:32:43;;;;;;;;;1.50;1.50;;;;;26.87;38.53;101868.22;5015761;28;47054;-69
2021/08/27 06:35:10;;;;;;;;;1.75;1.75;;;;;26.88;38.31;101867.19;5014973;28;45281;-69
2021/08/27 06:40:19;;;;;;;;;2.00;2.00;;;;;26.88;38.84;101877.06;5015109;28;45255;-68
2021/08/27 06:42:44;;;;;;;;;2.00;1.50;;;;;26.86;38.49;101877.22;5014938;28;46288;-69
2021/08/27 06:45:10;;;;;;;;;2.00;2.00;;;;;26.88;38.80;101877.06;5014993;28;45281;-69
2021/08/27 06:47:36;;;;;;;;;1.00;1.00;;;;;26.85;38.61;101873.72;5015716;28;45411;-69
2021/08/27 06:50:02;;;;;;;;;1.00;1.00;;;;;26.87;38.55;101886.91;5001611;28;45466;-69
2021/08/27 06:52:28;;;;;;;;;2.25;2.25;;;;;26.88;38.54;101877.06;5014448;28;46328;-69
2021/08/27 06:54:53;;;;;;;;;2.50;1.00;;;;;26.88;38.73;101885.06;5014634;28;45489;-69
2021/08/27 06:57:19;;;;;;;;;1.50;1.25;;;;;26.87;38.13;101884.25;5015232;28;45473;-69
2021/08/27 06:59:44;;;;;;;;;1.50;0.25;;;;;26.76;38.32;101866.84;5015410;28;45389;-69
2021/08/27 07:02:09;;;;;;;;;1.00;1.00;;;;;26.87;38.83;101883.41;5014596;28;47205;-69
2021/08/27 07:04:35;;;;;;;;;1.00;1.00;;;;;26.90;38.64;101885.69;5014639;28;45509;-69
2021/08/27 07:07:01;;;;;;;;;4.50;1.25;;;;;26.81;38.70;101876.97;5014410;28;45584;-69
2021/08/27 07:09:27;;;;;;;;;1.00;1.00;;;;;26.90;38.81;101893.72;5016379;28;45383;-69
2021/08/27 07:11:53;;;;;;;;;1.75;1.75;;;;;26.90;38.73;101889.22;5018435;28;45978;-69
2021/08/27 07:14:18;;;;;;;;;0.50;0.50;;;;;26.90;38.33;101899.88;5018679;28;45378;-69
2021/08/27 07:16:43;;;;;;;;;1.25;1.25;;;;;26.63;38.51;101862.19;5018101;28;45344;-69
2021/08/27 07:19:09;;;;;;;;;2.00;2.00;;;;;26.85;38.43;101897.75;5018213;28;45644;-68
2021/08/27 07:21:34;;;;;;;;;3.00;1.75;;;;;26.91;38.72;101906.03;5017763;28;47325;-70
2021/08/27 07:23:59;;;;;;;;;3.00;1.75;;;;;26.91;38.42;101903.38;5018476;28;45308;-69
2021/08/27 07:26:25;;;;;;;;;2.00;2.00;;;;;26.92;38.54;101913.03;5018500;28;45400;-69
2021/08/27 07:28:50;;;;;;;;;1.75;1.00;;;;;26.92;38.67;101913.03;5018022;28;45555;-70
2021/08/27 07:31:18;;;;;;;;;3.00;2.00;;;;;26.92;38.31;101911.19;5017854;28;46112;-69
2021/08/27 07:33:43;;;;;;;;;1.00;1.00;;;;;26.89;38.88;101919.59;5017946;28;45352;-69
2021/08/27 07:36:08;;;;;;;;;1.33;1.00;;;;;26.88;38.52;101917.91;5017621;28;45457;-69
2021/08/27 07:38:34;;;;;;;;;1.00;1.00;;;;;26.88;38.37;101903.75;5018414;28;45516;-68
2021/08/27 07:40:59;;;;;;;;;1.00;1.00;;;;;26.94;38.65;101927.84;5017689;28;45971;-68
2021/08/27 07:43:25;;;;;;;;;2.50;2.50;;;;;26.92;38.98;101924.56;5017673;28;45437;-69
2021/08/27 07:45:57;;;;;;;;;2.00;2.00;;;;;26.87;38.77;101916.28;5017872;28;45605;-68
2021/08/27 07:48:23;;;;;;;;;2.00;1.00;;;;;26.85;38.84;101912.97;5017845;28;45300;-68
2021/08/27 07:50:48;;;;;;;;;1.00;1.00;;;;;26.83;38.70;101909.63;5017618;28;46287;-68
2021/08/27 07:53:14;;;;;;;;;1.00;1.00;;;;;26.92;38.66;101921.03;5017698;28;45631;-69
2021/08/27 07:55:40;;;;;;;;;1.50;1.50;;;;;26.84;38.63;101911.31;5017691;28;45498;-69
2021/08/27 07:58:05;;;;;;;;;2.00;1.00;;;;;26.92;38.58;101929.06;5017650;28;45707;-69
2021/08/27 08:00:31;;;;;;;;;3.00;2.25;;;;;26.92;38.96;101926.38;5017406;28;46145;-69
2021/08/27 08:02:56;;;;;;;;;1.00;1.00;;;;;26.92;38.87;101929.06;5017674;28;45378;-69
2021/08/27 08:05:22;;;;;;;;;1.75;1.75;;;;;26.85;38.66;101937.81;5017752;28;45356;-69
2021/08/27 08:07:47;;;;;;;;;1.00;1.00;;;;;26.90;38.96;101931.94;5017487;28;45443;-69
2021/08/27 08:10:12;;;;;;;;;3.00;1.75;;;;;26.91;38.52;101943.41;5017181;28;47297;-68
2021/08/27 08:12:38;;;;;;;;;2.75;2.75;;;;;26.90;38.66;101939.94;5017245;28;45369;-69
2021/08/27 08:15:04;;;;;;;;;1.00;1.00;;;;;26.89;38.69;101935.59;5017521;28;45600;-69
2021/08/27 08:17:29;;;;;;;;;2.25;2.00;;;;;26.91;38.73;101941.56;5017869;28;45581;-69
2021/08/27 08:19:55;;;;;;;;;2.00;2.00;;;;;26.89;38.94;101942.78;5016266;28;47006;-68
2021/08/27 08:22:21;;;;;;;;;1.75;1.00;;;;;26.88;38.48;101944.63;5003825;28;45362;-69
2021/08/27 08:24:47;;;;;;;;;2.00;2.00;;;;;26.90;38.80;101950.63;5017261;28;45386;-69
2021/08/27 08:27:12;;;;;;;;;4.00;1.00;;;;;26.89;38.52;101948.94;5017184;28;45345;-69
2021/08/27 08:29:38;;;;;;;;;2.00;2.00;;;;;26.90;38.73;101941.78;5017687;28;45500;-69
2021/08/27 08:32:05;;;;;;;;;1.50;1.50;;;;;26.91;38.87;101954.09;5017040;28;45308;-69
2021/08/27 08:34:31;;;;;;;;;4.50;2.50;;;;;26.90;38.69;101955.13;5016744;28;45385;-69
2021/08/27 08:36:56;;;;;;;;;2.00;2.00;;;;;26.90;38.55;101947.13;5016827;28;45464;-69
2021/08/27 08:39:21;;;;;;;;;3.75;1.50;;;;;26.90;38.61;101947.94;5016924;28;46106;-69
2021/08/27 08:41:48;;;;;;;;;4.00;2.75;;;;;26.90;38.59;101947.13;5017631;28;45328;-69
2021/08/27 08:44:14;;;;;;;;;2.00;2.00;;;;;26.90;38.66;101942.63;5017022;28;45485;-69
2021/08/27 08:46:42;;;;;;;;;2.00;2.00;;;;;26.93;38.77;101941.41;5016297;28;45429;-68
2021/08/27 08:49:09;;;;;;;;;2.25;2.00;;;;;26.83;38.68;101931.84;5016576;28;46251;-69
2021/08/27 08:51:35;;;;;;;;;2.50;2.00;;;;;26.92;38.58;101942.41;5016703;28;45430;-68
2021/08/27 08:54:00;;;;;;;;;2.25;2.25;;;;;26.91;38.65;101948.75;5017323;28;45354;-69
2021/08/27 08:56:26;;;;;;;;;1.25;1.25;;;;;26.91;38.64;101948.75;5017152;28;45383;-69
2021/08/27 08:58:51;;;;;;;;;1.50;1.50;;;;;26.92;38.96;101942.41;5016350;28;47008;-70
2021/08/27 09:01:17;;;;;;;;;3.00;3.00;;;;;26.92;38.39;101948.59;5016160;28;45446;-69
2021/08/27 09:03:47;;;;;;;;;3.00;2.25;;;;;26.93;38.71;101952.91;5016818;28;45509;-69
2021/08/27 09:06:13;;;;;;;;;2.00;2.00;;;;;26.93;38.43;101952.09;5016677;28;45547;-69
2021/08/27 09:08:44;;;;;;;;;5.00;2.00;;;;;26.89;38.77;101942.78;5016989;28;45310;-69
2021/08/27 09:11:19;;;;;;;;;1.00;1.00;;;;;26.94;38.87;101946.56;5016213;28;45511;-69
2021/08/27 09:13:48;;;;;;;;;2.50;2.50;;;;;26.93;38.42;101950.22;5016460;28;45347;-69
2021/08/27 09:16:14;;;;;;;;;3.50;2.00;;;;;26.94;38.51;101953.72;5015928;28;45324;-69
2021/08/27 09:18:41;;;;;;;;;1.50;1.50;;;;;26.94;38.54;101951.88;5016345;28;46149;-69
2021/08/27 09:21:50;;;;;;;;;2.25;2.00;;;;;26.96;38.38;101957.03;5016369;28;45422;-69
2021/08/27 09:24:26;;;;;;;;;3.00;1.00;;;;;26.95;38.70;101955.41;5016383;28;45209;-69
2021/08/27 09:26:56;;;;;;;;;5.50;1.50;;;;;26.95;38.54;101955.41;5013085;28;45492;-69
2021/08/27 09:29:31;;;;;;;;;3.00;2.00;;;;;26.95;38.66;101960.75;5015602;28;46263;-69
2021/08/27 09:31:56;;;;;;;;;2.00;2.00;;;;;26.95;38.57;101960.75;5014975;28;45433;-69
2021/08/27 09:34:28;;;;;;;;;2.25;2.25;;;;;26.94;38.78;101954.56;5016260;28;45939;-69
2021/08/27 09:36:58;;;;;;;;;4.50;3.00;;;;;26.95;38.41;101950.88;5016059;28;45462;-69
2021/08/27 09:39:34;;;;;;;;;3.25;2.75;;;;;26.96;38.79;101959.69;5015805;28;46529;-70
2021/08/27 09:42:01;;;;;;;;;5.00;2.00;;;;;26.96;38.50;101957.03;5016144;28;45573;-69
2021/08/27 09:44:27;;;;;;;;;1.25;1.25;;;;;26.93;38.75;101946.75;5016356;28;45222;-69
2021/08/27 09:46:53;;;;;;;;;1.25;1.25;;;;;26.89;38.40;101948.94;5015377;28;45410;-69
2021/08/27 09:49:36;;;;;;;;;2.00;2.00;;;;;26.96;38.65;101952.53;5002085;28;46079;-69
2021/08/27 09:52:09;;;;;;;;;1.00;1.00;;;;;26.96;38.83;101954.38;5015866;28;45627;-69
2021/08/27 09:54:38;;;;;;;;;3.00;3.00;;;;;26.96;38.69;101949.84;5015953;28;45513;-69
2021/08/27 09:57:05;;;;;;;;;1.25;1.25;;;;;26.96;38.86;101965.88;5015662;28;45348;-69
2021/08/27 09:59:39;;;;;;;;;2.00;2.00;;;;;26.97;38.50;101961.38;5014776;28;45480;-69
2021/08/27 10:02:09;;;;;;;;;2.75;2.00;;;;;26.94;38.23;101951.88;5015284;28;45497;-69
2021/08/27 10:04:47;;;;;;;;;2.00;2.00;;;;;26.87;38.54;101939.47;5015697;28;45337;-69
2021/08/27 10:07:24;;;;;;;;;2.00;2.00;;;;;26.96;38.50;101962.38;5015444;28;45495;-69
2021/08/27 10:09:50;;;;;;;;;4.00;4.00;;;;;26.96;38.62;101962.38;5015363;28;46178;-69
2021/08/27 10:12:15;;;;;;;;;2.00;2.00;;;;;26.95;38.57;101953.56;5015289;28;51583;-69
2021/08/27 10:14:40;;;;;;;;;3.00;3.00;;;;;26.82;38.27;101940.03;5015837;28;45465;-69
2021/08/27 10:17:07;;;;;;;;;2.00;2.00;;;;;26.89;38.67;101953.47;5015366;28;45491;-70
2021/08/27 10:19:33;;;;;;;;;4.00;2.75;;;;;26.94;38.37;101964.41;5015296;28;46239;-69
2021/08/27 10:21:59;;;;;;;;;3.00;3.00;;;;;26.96;38.79;101965.03;5015502;28;45583;-69
2021/08/27 10:24:24;;;;;;;;;3.75;2.00;;;;;26.95;38.61;101966.91;5015423;28;45573;-70
2021/08/27 10:26:50;;;;;;;;;2.25;1.50;;;;;26.95;38.94;101963.41;5015645;28;45446;-69
2021/08/27 10:29:15;;;;;;;;;2.00;2.00;;;;;26.97;38.40;101972.06;5015097;28;46123;-69
2021/08/27 10:31:50;;;;;;;;;3.00;2.00;;;;;26.96;38.37;101968.53;5015078;28;45386;-69
2021/08/27 10:34:17;;;;;;;;;1.25;1.25;;;;;26.92;38.42;101955.75;5015346;28;45541;-69
2021/08/27 10:36:50;;;;;;;;;2.00;2.00;;;;;26.98;38.36;101962.22;5015123;28;45351;-69
2021/08/27 10:39:36;;;;;;;;;1.25;1.25;;;;;26.99;38.64;101970.03;5014967;28;47126;-69
2021/08/27 10:42:01;;;;;;;;;3.00;2.00;;;;;26.91;38.70;101954.94;5026611;28;45315;-69
2021/08/27 10:44:49;;;;;;;;;5.25;2.00;;;;;26.98;38.32;101957.69;5014997;28;45355;-69
2021/08/27 10:47:15;;;;;;;;;2.75;2.75;;;;;26.98;38.66;101955.03;5015221;28;47293;-69
2021/08/27 10:49:46;;;;;;;;;3.00;3.00;;;;;27.00;38.48;101954.81;5014706;28;46065;-69
2021/08/27 10:52:35;;;;;;;;;5.00;4.00;;;;;26.99;38.29;101954.00;5014818;28;45324;-69
2021/08/27 10:55:04;;;;;;;;;1.75;1.75;;;;;27.00;38.56;101947.66;5014825;28;45435;-69
2021/08/27 10:57:43;;;;;;;;;1.75;1.75;;;;;26.97;38.48;101934.66;5014716;28;45518;-69
2021/08/27 11:00:09;;;;;;;;;4.00;3.00;;;;;27.00;38.18;101946.81;5014718;28;45573;-69
2021/08/27 11:02:53;;;;;;;;;3.00;3.00;;;;;26.99;38.79;101940.63;5015265;28;45580;-69
2021/08/27 11:05:33;;;;;;;;;1.75;1.75;;;;;27.01;38.60;101945.81;5015133;28;45495;-69
2021/08/27 11:08:04;;;;;;;;;1.50;1.50;;;;;27.00;38.37;101936.97;5014562;28;45410;-68
2021/08/27 11:10:30;;;;;;;;;2.50;1.75;;;;;27.00;38.64;101923.63;5014449;28;47319;-69
2021/08/27 11:13:00;;;;;;;;;2.00;2.00;;;;;27.01;38.48;101927.13;5014120;28;45546;-69
2021/08/27 11:15:30;;;;;;;;;1.75;1.75;;;;;27.01;38.63;101930.59;5014651;28;45616;-69
2021/08/27 11:18:13;;;;;;;;;2.00;2.00;;;;;27.01;38.30;101930.59;5014962;28;45382;-69
2021/08/27 11:20:39;;;;;;;;;5.00;2.50;;;;;27.00;38.49;101934.28;5014289;28;47234;-69
2021/08/27 11:23:05;;;;;;;;;1.75;1.75;;;;;27.00;38.49;101936.97;5014479;28;45587;-69
2021/08/27 11:25:34;;;;;;;;;2.00;2.00;;;;;26.97;38.56;101926.66;5000914;28;45514;-69
2021/08/27 11:28:18;;;;;;;;;2.00;2.00;;;;;26.99;38.43;101932.63;5014055;28;45476;-69
2021/08/27 11:30:59;;;;;;;;;2.00;2.00;;;;;27.02;38.33;101931.44;5014386;28;47248;-69
2021/08/27 11:33:40;;;;;;;;;3.50;2.25;;;;;27.01;38.20;101927.91;4981466;28;47161;-69